createdAt,value
2019-05-02T00:00:40.992Z,86.60
2019-05-02T00:01:40.981Z,86.29
2019-05-02T00:02:40.975Z,85.88
2019-05-02T00:03:42.799Z,86.19
2019-05-02T00:04:40.950Z,86.08
2019-05-02T00:05:40.961Z,86.74
2019-05-02T00:06:42.887Z,86.40
2019-05-02T00:07:40.918Z,86.50
2019-05-02T00:08:40.916Z,86.50
2019-05-02T00:09:47.415Z,88.66
2019-05-02T00:10:41.887Z,90.09
2019-05-02T00:11:40.881Z,88.04
2019-05-02T00:12:40.864Z,87.52
2019-05-02T00:13:40.860Z,86.70
2019-05-02T00:14:40.862Z,86.70
2019-05-02T00:15:40.840Z,86.70
2019-05-02T00:16:45.032Z,86.08
2019-05-02T00:17:41.807Z,86.80
2019-05-02T00:18:40.800Z,86.70
2019-05-02T00:19:45.218Z,86.60
2019-05-02T00:20:41.778Z,86.60
2019-05-02T00:21:43.101Z,86.19
2019-05-02T00:22:40.757Z,85.98
2019-05-02T00:23:40.747Z,86.91
2019-05-02T00:24:41.089Z,86.70
2019-05-02T00:25:40.733Z,86.64
2019-05-02T00:26:40.717Z,87.22
2019-05-02T00:27:40.715Z,86.43
2019-05-02T00:28:42.958Z,86.33
2019-05-02T00:29:41.681Z,86.74
2019-05-02T00:30:40.668Z,86.95
2019-05-02T00:31:41.999Z,87.05
2019-05-02T00:32:41.647Z,86.74
2019-05-02T00:33:40.659Z,87.05
2019-05-02T00:34:40.625Z,86.85
2019-05-02T00:35:45.533Z,86.64
2019-05-02T00:36:41.605Z,87.26
2019-05-02T00:37:40.597Z,87.15
2019-05-02T00:38:40.592Z,86.74
2019-05-02T00:39:40.572Z,87.26
2019-05-02T00:40:40.562Z,86.33
2019-05-02T00:41:40.586Z,87.26
2019-05-02T00:42:40.542Z,86.95
2019-05-02T00:43:40.527Z,86.64
2019-05-02T00:44:42.068Z,86.95
2019-05-02T00:45:41.516Z,86.58
2019-05-02T00:46:40.500Z,86.79
2019-05-02T00:47:42.409Z,86.37
2019-05-02T00:48:41.473Z,87.40
2019-05-02T00:49:40.467Z,86.68
2019-05-02T00:50:44.962Z,86.99
2019-05-02T00:51:40.443Z,86.27
2019-05-02T00:52:40.431Z,86.99
2019-05-02T00:53:44.497Z,86.68
2019-05-02T00:54:41.423Z,86.16
2019-05-02T00:55:40.408Z,86.99
2019-05-02T00:56:44.005Z,87.09
2019-05-02T00:57:40.377Z,86.58
2019-05-02T00:58:40.368Z,86.47
2019-05-02T00:59:42.410Z,87.19
2019-05-02T01:00:40.368Z,86.37
2019-05-02T01:01:40.345Z,86.16
2019-05-02T01:02:41.721Z,87.19
2019-05-02T01:03:40.315Z,86.47
2019-05-02T01:04:40.305Z,87.03
2019-05-02T01:05:40.353Z,86.82
2019-05-02T01:06:54.807Z,86.21
2019-05-02T01:07:40.276Z,86.47
2019-05-02T01:08:40.259Z,86.93
2019-05-02T01:09:42.154Z,86.58
2019-05-02T01:10:41.246Z,86.52
2019-05-02T01:11:40.226Z,87.24
2019-05-02T01:12:44.310Z,87.09
2019-05-02T01:13:41.206Z,86.68
2019-05-02T01:14:40.203Z,87.03
2019-05-02T01:15:44.153Z,87.03
2019-05-02T01:16:40.172Z,86.72
2019-05-02T01:17:40.165Z,86.82
2019-05-02T01:18:41.293Z,86.93
2019-05-02T01:19:40.155Z,86.61
2019-05-02T01:20:40.142Z,87.13
2019-05-02T01:21:40.202Z,87.03
2019-05-02T01:22:40.109Z,86.93
2019-05-02T01:23:40.121Z,87.48
2019-05-02T01:24:41.675Z,87.24
2019-05-02T01:25:40.076Z,86.72
2019-05-02T01:26:40.066Z,87.24
2019-05-02T01:27:41.213Z,86.35
2019-05-02T01:28:40.042Z,87.27
2019-05-02T01:29:40.063Z,86.93
2019-05-02T01:30:42.346Z,87.07
2019-05-02T01:31:40.010Z,87.48
2019-05-02T01:32:40.001Z,87.69
2019-05-02T01:33:41.660Z,86.87
2019-05-02T01:34:39.979Z,86.87
2019-05-02T01:35:40.000Z,86.66
2019-05-02T01:36:41.057Z,86.76
2019-05-02T01:37:39.945Z,86.87
2019-05-02T01:38:39.938Z,86.72
2019-05-02T01:39:42.753Z,86.45
2019-05-02T01:40:39.923Z,87.17
2019-05-02T01:41:39.905Z,87.34
2019-05-02T01:42:44.249Z,86.87
2019-05-02T01:43:39.881Z,86.76
2019-05-02T01:44:39.872Z,86.87
2019-05-02T01:45:41.856Z,86.82
2019-05-02T01:46:39.858Z,86.66
2019-05-02T01:47:39.851Z,86.76
2019-05-02T01:48:45.058Z,87.38
2019-05-02T01:49:40.816Z,86.76
2019-05-02T01:50:39.867Z,87.48
2019-05-02T01:51:42.055Z,87.27
2019-05-02T01:52:40.809Z,86.66
2019-05-02T01:53:39.789Z,86.76
2019-05-02T01:54:40.766Z,86.66
2019-05-02T01:55:40.775Z,87.38
2019-05-02T01:56:39.740Z,87.07
2019-05-02T01:57:39.997Z,86.97
2019-05-02T01:58:39.720Z,86.76
2019-05-02T01:59:39.712Z,87.07
2019-05-02T02:00:40.858Z,87.17
2019-05-02T02:01:39.686Z,86.76
2019-05-02T02:02:39.677Z,86.76
2019-05-02T02:03:40.482Z,86.76
2019-05-02T02:04:40.655Z,86.55
2019-05-02T02:05:39.651Z,86.76
2019-05-02T02:06:43.418Z,86.90
2019-05-02T02:07:40.647Z,86.97
2019-05-02T02:08:39.610Z,86.80
2019-05-02T02:09:44.117Z,87.42
2019-05-02T02:10:43.602Z,87.21
2019-05-02T02:11:39.604Z,87.42
2019-05-02T02:12:41.216Z,88.56
2019-05-02T02:13:40.583Z,87.83
2019-05-02T02:14:39.554Z,88.65
2019-05-02T02:15:39.542Z,88.24
2019-05-02T02:16:40.468Z,88.35
2019-05-02T02:17:39.530Z,87.73
2019-05-02T02:18:39.501Z,87.32
2019-05-02T02:19:40.704Z,88.24
2019-05-02T02:20:39.481Z,88.20
2019-05-02T02:21:42.560Z,86.60
2019-05-02T02:22:41.119Z,87.11
2019-05-02T02:23:39.455Z,88.20
2019-05-02T02:24:39.437Z,87.79
2019-05-02T02:25:39.427Z,87.48
2019-05-02T02:26:39.443Z,89.54
2019-05-02T02:27:39.406Z,90.57
2019-05-02T02:28:39.401Z,89.34
2019-05-02T02:29:43.952Z,90.16
2019-05-02T02:30:40.374Z,88.92
2019-05-02T02:31:45.992Z,90.26
2019-05-02T02:32:40.363Z,89.23
2019-05-02T02:33:41.051Z,88.51
2019-05-02T02:34:40.338Z,88.31
2019-05-02T02:35:49.816Z,87.83
2019-05-02T02:36:40.343Z,88.62
2019-05-02T02:37:39.298Z,88.51
2019-05-02T02:38:39.293Z,87.38
2019-05-02T02:39:39.301Z,86.66
2019-05-02T02:40:39.269Z,88.62
2019-05-02T02:41:39.258Z,87.79
2019-05-02T02:42:39.245Z,87.17
2019-05-02T02:43:39.233Z,87.38
2019-05-02T02:44:39.935Z,87.48
2019-05-02T02:45:39.214Z,87.07
2019-05-02T02:46:40.066Z,87.17
2019-05-02T02:47:39.193Z,87.48
2019-05-02T02:48:40.559Z,87.27
2019-05-02T02:49:39.195Z,87.90
2019-05-02T02:50:43.136Z,87.59
2019-05-02T02:51:40.159Z,87.27
2019-05-02T02:52:44.453Z,87.99
2019-05-02T02:53:40.129Z,87.17
2019-05-02T02:54:43.518Z,88.62
2019-05-02T02:55:40.119Z,88.62
2019-05-02T02:56:40.402Z,88.10
2019-05-02T02:57:39.114Z,87.90
2019-05-02T02:58:45.503Z,88.82
2019-05-02T02:59:40.074Z,88.10
2019-05-02T03:00:41.391Z,88.41
2019-05-02T03:01:40.052Z,89.23
2019-05-02T03:02:47.827Z,88.92
2019-05-02T03:03:40.018Z,89.75
2019-05-02T03:04:44.227Z,89.75
2019-05-02T03:05:39.998Z,90.06
2019-05-02T03:06:44.962Z,88.99
2019-05-02T03:07:39.987Z,88.68
2019-05-02T03:08:46.397Z,87.75
2019-05-02T03:09:39.959Z,88.62
2019-05-02T03:10:39.930Z,87.13
2019-05-02T03:11:40.052Z,87.13
2019-05-02T03:12:41.439Z,88.62
2019-05-02T03:13:51.503Z,88.62
2019-05-02T03:14:40.927Z,88.20
2019-05-02T03:15:39.890Z,88.37
2019-05-02T03:16:45.969Z,88.68
2019-05-02T03:17:39.881Z,88.47
2019-05-02T03:18:40.729Z,87.96
2019-05-02T03:19:38.845Z,87.96
2019-05-02T03:20:40.648Z,87.34
2019-05-02T03:21:38.827Z,88.10
2019-05-02T03:22:41.943Z,88.17
2019-05-02T03:23:38.802Z,88.72
2019-05-02T03:24:44.053Z,87.79
2019-05-02T03:25:50.486Z,88.51
2019-05-02T03:26:39.786Z,88.68
2019-05-02T03:27:40.390Z,88.72
2019-05-02T03:28:38.754Z,89.71
2019-05-02T03:29:43.925Z,89.85
2019-05-02T03:30:39.732Z,90.06
2019-05-02T03:31:38.732Z,89.29
2019-05-02T03:32:38.829Z,88.17
2019-05-02T03:33:52.680Z,88.62
2019-05-02T03:34:51.990Z,90.12
2019-05-02T03:35:43.723Z,89.95
2019-05-02T03:36:39.675Z,89.40
2019-05-02T03:37:44.694Z,89.23
2019-05-02T03:38:39.641Z,89.09
2019-05-02T03:39:38.678Z,89.23
2019-05-02T03:40:41.098Z,88.89
2019-05-02T03:41:38.613Z,88.47
2019-05-02T03:42:44.550Z,88.51
2019-05-02T03:43:39.591Z,88.20
2019-05-02T03:44:38.577Z,87.38
2019-05-02T03:45:42.803Z,88.20
2019-05-02T03:46:38.557Z,87.90
2019-05-02T03:47:43.997Z,86.87
2019-05-02T03:48:39.598Z,87.17
2019-05-02T03:49:40.818Z,87.17
2019-05-02T03:50:39.510Z,86.66
2019-05-02T03:51:38.503Z,87.07
2019-05-02T03:52:43.993Z,86.87
2019-05-02T03:53:39.480Z,86.29
2019-05-02T03:54:49.022Z,86.24
2019-05-02T03:55:39.460Z,87.17
2019-05-02T03:56:38.448Z,88.65
2019-05-02T03:57:41.881Z,87.21
2019-05-02T03:58:38.435Z,88.04
2019-05-02T03:59:41.614Z,88.56
2019-05-02T04:00:38.411Z,88.24
2019-05-02T04:01:41.174Z,87.21
2019-05-02T04:02:38.392Z,88.24
2019-05-02T04:03:41.076Z,88.24
2019-05-02T04:04:39.362Z,88.35
2019-05-02T04:05:40.439Z,88.14
2019-05-02T04:06:38.346Z,88.65
2019-05-02T04:07:40.565Z,88.56
2019-05-02T04:08:38.318Z,87.93
2019-05-02T04:09:39.763Z,88.65
2019-05-02T04:10:38.302Z,88.35
2019-05-02T04:11:40.679Z,88.76
2019-05-02T04:12:38.307Z,89.38
2019-05-02T04:13:38.296Z,88.35
2019-05-02T04:14:38.921Z,88.86
2019-05-02T04:15:38.248Z,88.76
2019-05-02T04:16:38.238Z,88.56
2019-05-02T04:17:38.221Z,88.65
2019-05-02T04:18:38.220Z,88.35
2019-05-02T04:19:38.199Z,88.24
2019-05-02T04:20:43.515Z,88.24
2019-05-02T04:21:39.196Z,89.28
2019-05-02T04:22:42.702Z,90.31
2019-05-02T04:23:39.174Z,90.10
2019-05-02T04:24:38.169Z,90.10
2019-05-02T04:25:38.143Z,90.06
2019-05-02T04:26:38.124Z,89.79
2019-05-02T04:27:38.113Z,90.41
2019-05-02T04:28:38.121Z,90.57
2019-05-02T04:29:38.105Z,91.40
2019-05-02T04:30:38.082Z,90.88
2019-05-02T04:31:38.070Z,90.78
2019-05-02T04:32:38.059Z,90.47
2019-05-02T04:33:38.057Z,90.57
2019-05-02T04:34:38.036Z,90.67
2019-05-02T04:35:38.033Z,90.37
2019-05-02T04:36:38.015Z,90.78
2019-05-02T04:37:41.148Z,90.22
2019-05-02T04:38:47.464Z,89.85
2019-05-02T04:39:39.323Z,90.06
2019-05-02T04:40:41.717Z,90.37
2019-05-02T04:41:42.299Z,90.47
2019-05-02T04:42:39.300Z,90.33
2019-05-02T04:43:40.805Z,90.43
2019-05-02T04:44:44.387Z,89.71
2019-05-02T04:45:54.796Z,90.12
2019-05-02T04:46:38.968Z,89.91
2019-05-02T04:47:39.010Z,90.22
2019-05-02T04:48:43.774Z,90.22
2019-05-02T04:49:39.336Z,90.01
2019-05-02T04:50:38.004Z,90.22
2019-05-02T04:51:38.272Z,90.33
2019-05-02T04:52:47.242Z,90.12
2019-05-02T04:53:44.347Z,90.53
2019-05-02T04:54:39.105Z,90.43
2019-05-02T04:55:38.237Z,91.31
2019-05-02T04:56:42.089Z,90.53
2019-05-02T04:57:46.882Z,90.43
2019-05-02T04:58:40.659Z,90.39
2019-05-02T04:59:39.430Z,90.49
2019-05-02T05:00:39.199Z,90.39
2019-05-02T05:01:43.444Z,90.28
2019-05-02T05:02:39.989Z,89.77
2019-05-02T05:03:37.759Z,90.08
2019-05-02T05:04:42.465Z,89.97
2019-05-02T05:05:40.325Z,89.87
2019-05-02T05:06:40.749Z,89.97
2019-05-02T05:07:44.477Z,90.08
2019-05-02T05:08:41.562Z,89.67
2019-05-02T05:09:40.148Z,89.67
2019-05-02T05:10:41.498Z,89.36
2019-05-02T05:11:38.638Z,89.87
2019-05-02T05:12:41.691Z,89.56
2019-05-02T05:13:37.621Z,90.08
2019-05-02T05:14:42.767Z,90.49
2019-05-02T05:15:48.465Z,90.45
2019-05-02T05:16:40.129Z,90.24
2019-05-02T05:17:37.623Z,90.03
2019-05-02T05:18:37.955Z,90.14
2019-05-02T05:19:37.553Z,90.45
2019-05-02T05:20:38.554Z,89.83
2019-05-02T05:21:37.534Z,89.73
2019-05-02T05:22:44.304Z,90.14
2019-05-02T05:23:38.506Z,89.83
2019-05-02T05:24:40.665Z,89.94
2019-05-02T05:25:37.988Z,89.31
2019-05-02T05:26:41.006Z,90.03
2019-05-02T05:27:38.464Z,89.94
2019-05-02T05:28:42.671Z,89.11
2019-05-02T05:29:38.818Z,89.31
2019-05-02T05:30:44.926Z,88.80
2019-05-02T05:31:38.430Z,88.76
2019-05-02T05:32:37.608Z,88.96
2019-05-02T05:33:37.825Z,89.28
2019-05-02T05:34:37.953Z,90.41
2019-05-02T05:35:38.538Z,90.30
2019-05-02T05:36:37.583Z,90.00
2019-05-02T05:37:38.180Z,90.30
2019-05-02T05:38:40.440Z,90.30
2019-05-02T05:39:38.141Z,90.30
2019-05-02T05:40:37.657Z,89.69
2019-05-02T05:41:37.896Z,90.00
2019-05-02T05:42:37.898Z,89.89
2019-05-02T05:43:37.982Z,89.89
2019-05-02T05:44:37.525Z,89.89
2019-05-02T05:45:48.647Z,90.00
2019-05-02T05:46:42.420Z,89.03
2019-05-02T05:47:37.805Z,89.03
2019-05-02T05:48:40.797Z,89.03
2019-05-02T05:49:37.590Z,89.13
2019-05-02T05:50:41.253Z,88.92
2019-05-02T05:51:37.547Z,88.41
2019-05-02T05:52:38.693Z,88.00
2019-05-02T05:53:37.595Z,88.41
2019-05-02T05:54:39.547Z,88.00
2019-05-02T05:55:38.295Z,88.37
2019-05-02T05:56:42.971Z,88.78
2019-05-02T05:57:38.548Z,88.68
2019-05-02T05:58:39.858Z,89.91
2019-05-02T05:59:38.155Z,88.17
2019-05-02T06:00:38.021Z,88.27
2019-05-02T06:01:38.399Z,88.89
2019-05-02T06:02:50.814Z,88.06
2019-05-02T06:03:41.891Z,88.02
2019-05-02T06:04:38.785Z,88.12
2019-05-02T06:05:38.546Z,88.43
2019-05-02T06:06:37.762Z,87.71
2019-05-02T06:07:41.783Z,88.43
2019-05-02T06:08:38.022Z,88.33
2019-05-02T06:09:37.039Z,87.61
2019-05-02T06:10:39.086Z,87.88
2019-05-02T06:11:37.989Z,87.88
2019-05-02T06:12:36.987Z,87.88
2019-05-02T06:13:38.172Z,86.85
2019-05-02T06:14:36.958Z,86.85
2019-05-02T06:15:38.919Z,86.65
2019-05-02T06:16:36.947Z,87.05
2019-05-02T06:17:36.925Z,86.75
2019-05-02T06:18:41.722Z,86.85
2019-05-02T06:19:37.902Z,86.03
2019-05-02T06:20:36.945Z,86.19
2019-05-02T06:21:40.081Z,86.71
2019-05-02T06:22:37.987Z,86.46
2019-05-02T06:23:41.080Z,86.81
2019-05-02T06:24:36.880Z,86.77
2019-05-02T06:25:37.031Z,86.15
2019-05-02T06:26:36.828Z,86.36
2019-05-02T06:27:36.816Z,86.36
2019-05-02T06:28:41.687Z,86.46
2019-05-02T06:29:37.794Z,86.46
2019-05-02T06:30:36.811Z,85.95
2019-05-02T06:31:38.193Z,85.91
2019-05-02T06:32:37.763Z,86.93
2019-05-02T06:33:36.756Z,86.63
2019-05-02T06:34:38.762Z,85.87
2019-05-02T06:35:37.743Z,85.77
2019-05-02T06:36:38.018Z,86.28
2019-05-02T06:37:36.722Z,85.97
2019-05-02T06:38:36.699Z,85.36
2019-05-02T06:39:36.709Z,85.63
2019-05-02T06:40:39.289Z,85.52
2019-05-02T06:41:37.671Z,85.11
2019-05-02T06:42:38.054Z,85.01
2019-05-02T06:43:41.254Z,84.60
2019-05-02T06:44:37.694Z,84.19
2019-05-02T06:45:37.491Z,83.68
2019-05-02T06:46:36.618Z,83.64
2019-05-02T06:47:41.504Z,83.33
2019-05-02T06:48:37.591Z,83.74
2019-05-02T06:49:36.581Z,84.05
2019-05-02T06:50:38.921Z,84.05
2019-05-02T06:51:36.563Z,84.05
2019-05-02T06:52:36.554Z,83.64
2019-05-02T06:53:36.557Z,83.81
2019-05-02T06:54:36.543Z,83.81
2019-05-02T06:55:38.739Z,84.01
2019-05-02T06:56:36.512Z,83.13
2019-05-02T06:57:36.498Z,83.50
2019-05-02T06:58:37.190Z,82.57
2019-05-02T06:59:36.479Z,82.98
2019-05-02T07:00:49.941Z,81.96
2019-05-02T07:01:37.453Z,81.45
2019-05-02T07:02:36.442Z,81.15
2019-05-02T07:03:36.436Z,81.96
2019-05-02T07:04:36.428Z,82.13
2019-05-02T07:05:36.454Z,80.74
2019-05-02T07:06:55.919Z,80.60
2019-05-02T07:07:37.778Z,80.63
2019-05-02T07:08:36.379Z,80.90
2019-05-02T07:09:41.028Z,82.34
2019-05-02T07:10:44.596Z,82.34
2019-05-02T07:11:38.956Z,82.34
2019-05-02T07:12:36.378Z,83.05
2019-05-02T07:13:42.211Z,82.23
2019-05-02T07:14:37.317Z,82.43
2019-05-02T07:15:38.581Z,82.84
2019-05-02T07:16:38.853Z,79.88
2019-05-02T07:17:38.319Z,80.87
2019-05-02T07:18:36.276Z,81.82
2019-05-02T07:19:36.272Z,81.17
2019-05-02T07:20:40.668Z,80.01
2019-05-02T07:21:37.242Z,80.35
2019-05-02T07:22:38.809Z,80.66
2019-05-02T07:23:36.249Z,82.77
2019-05-02T07:24:36.228Z,81.74
2019-05-02T07:25:39.130Z,79.60
2019-05-02T07:26:36.190Z,80.73
2019-05-02T07:27:38.916Z,80.83
2019-05-02T07:28:40.442Z,82.01
2019-05-02T07:29:37.161Z,82.12
2019-05-02T07:30:36.316Z,79.39
2019-05-02T07:31:36.135Z,77.31
2019-05-02T07:32:36.123Z,79.05
2019-05-02T07:33:37.481Z,79.05
2019-05-02T07:34:36.119Z,79.43
2019-05-02T07:35:36.100Z,77.59
2019-05-02T07:36:36.767Z,79.02
2019-05-02T07:37:36.076Z,78.61
2019-05-02T07:38:36.057Z,77.79
2019-05-02T07:39:40.528Z,77.48
2019-05-02T07:40:36.036Z,77.96
2019-05-02T07:41:37.273Z,78.98
2019-05-02T07:42:36.953Z,79.49
2019-05-02T07:43:37.022Z,76.53
2019-05-02T07:44:35.991Z,77.96
2019-05-02T07:45:40.191Z,79.18
2019-05-02T07:46:37.001Z,77.31
2019-05-02T07:47:40.450Z,74.55
2019-05-02T07:48:36.947Z,73.23
2019-05-02T07:49:35.936Z,75.95
2019-05-02T07:50:35.930Z,75.23
2019-05-02T07:51:35.929Z,75.64
2019-05-02T07:52:35.962Z,74.52
2019-05-02T07:53:35.898Z,73.97
2019-05-02T07:54:35.884Z,73.06
2019-05-02T07:55:40.823Z,75.47
2019-05-02T07:56:36.881Z,73.94
2019-05-02T07:57:35.854Z,72.69
2019-05-02T07:58:38.440Z,72.38
2019-05-02T07:59:36.830Z,73.71
2019-05-02T08:00:37.117Z,73.80
2019-05-02T08:01:35.821Z,72.25
2019-05-02T08:02:35.804Z,71.40
2019-05-02T08:03:35.888Z,72.21
2019-05-02T08:04:35.782Z,72.31
2019-05-02T08:05:35.765Z,73.33
2019-05-02T08:06:40.004Z,70.25
2019-05-02T08:07:36.792Z,71.77
2019-05-02T08:08:36.436Z,72.89
2019-05-02T08:09:39.276Z,70.96
2019-05-02T08:10:36.709Z,71.64
2019-05-02T08:11:37.106Z,70.72
2019-05-02T08:12:35.689Z,71.03
2019-05-02T08:13:35.679Z,70.52
2019-05-02T08:14:36.421Z,70.01
2019-05-02T08:15:35.665Z,68.99
2019-05-02T08:16:35.704Z,67.47
2019-05-02T08:17:35.634Z,68.45
2019-05-02T08:18:35.648Z,67.84
2019-05-02T08:19:37.534Z,69.57
2019-05-02T08:20:36.623Z,68.42
2019-05-02T08:21:35.603Z,68.22
2019-05-02T08:22:35.607Z,68.01
2019-05-02T08:23:35.573Z,66.77
2019-05-02T08:24:37.942Z,68.39
2019-05-02T08:25:35.570Z,67.68
2019-05-02T08:26:35.544Z,68.08
2019-05-02T08:27:36.718Z,67.98
2019-05-02T08:28:35.517Z,69.71
2019-05-02T08:29:35.507Z,68.05
2019-05-02T08:30:40.347Z,68.26
2019-05-02T08:31:36.491Z,67.72
2019-05-02T08:32:35.832Z,67.21
2019-05-02T08:33:35.959Z,67.82
2019-05-02T08:34:35.453Z,67.92
2019-05-02T08:35:35.445Z,66.57
2019-05-02T08:36:35.437Z,67.48
2019-05-02T08:37:40.877Z,66.57
2019-05-02T08:38:36.409Z,66.47
2019-05-02T08:39:35.414Z,66.37
2019-05-02T08:40:35.388Z,66.47
2019-05-02T08:41:35.382Z,68.19
2019-05-02T08:42:35.380Z,65.62
2019-05-02T08:43:35.356Z,64.21
2019-05-02T08:44:35.350Z,64.01
2019-05-02T08:45:38.132Z,65.32
2019-05-02T08:46:35.329Z,67.14
2019-05-02T08:47:35.333Z,64.07
2019-05-02T08:48:36.437Z,62.86
2019-05-02T08:49:36.320Z,61.24
2019-05-02T08:50:35.323Z,62.86
2019-05-02T08:51:35.279Z,61.92
2019-05-02T08:52:36.837Z,61.01
2019-05-02T08:53:36.257Z,62.73
2019-05-02T08:54:35.241Z,62.50
2019-05-02T08:55:35.230Z,62.16
2019-05-02T08:56:35.228Z,60.55
2019-05-02T08:57:36.327Z,61.25
2019-05-02T08:58:35.199Z,61.46
2019-05-02T08:59:35.186Z,60.22
2019-05-02T09:00:37.425Z,61.00
2019-05-02T09:01:35.710Z,57.67
2019-05-02T09:02:41.414Z,58.47
2019-05-02T09:03:54.716Z,58.58
2019-05-02T09:04:36.132Z,58.14
2019-05-02T09:05:36.942Z,58.95
2019-05-02T09:06:36.133Z,54.38
2019-05-02T09:07:37.197Z,57.31
2019-05-02T09:08:35.192Z,58.52
2019-05-02T09:09:35.085Z,59.12
2019-05-02T09:10:37.063Z,57.78
2019-05-02T09:11:36.075Z,59.09
2019-05-02T09:12:36.873Z,59.09
2019-05-02T09:13:36.047Z,59.60
2019-05-02T09:14:35.028Z,58.39
2019-05-02T09:15:35.359Z,57.98
2019-05-02T09:16:35.042Z,58.69
2019-05-02T09:17:38.639Z,58.69
2019-05-02T09:18:38.270Z,55.74
2019-05-02T09:19:35.978Z,55.14
2019-05-02T09:20:34.964Z,58.26
2019-05-02T09:21:36.046Z,56.22
2019-05-02T09:22:34.949Z,57.93
2019-05-02T09:23:37.100Z,55.21
2019-05-02T09:24:34.937Z,56.52
2019-05-02T09:25:34.916Z,57.03
2019-05-02T09:26:38.445Z,55.29
2019-05-02T09:27:34.895Z,55.99
2019-05-02T09:28:34.891Z,54.18
2019-05-02T09:29:37.301Z,52.67
2019-05-02T09:30:35.867Z,49.73
2019-05-02T09:31:36.716Z,49.70
2019-05-02T09:32:37.209Z,49.40
2019-05-02T09:33:36.864Z,48.49
2019-05-02T09:34:35.822Z,49.77
2019-05-02T09:35:34.810Z,49.18
2019-05-02T09:36:34.799Z,50.58
2019-05-02T09:37:34.798Z,48.75
2019-05-02T09:38:34.863Z,49.76
2019-05-02T09:39:36.505Z,51.56
2019-05-02T09:40:34.755Z,51.97
2019-05-02T09:41:36.258Z,50.63
2019-05-02T09:42:34.736Z,48.22
2019-05-02T09:43:38.970Z,50.71
2019-05-02T09:44:34.719Z,49.80
2019-05-02T09:45:37.426Z,51.01
2019-05-02T09:46:34.691Z,51.19
2019-05-02T09:47:46.985Z,49.58
2019-05-02T09:48:35.691Z,45.06
2019-05-02T09:49:34.660Z,44.44
2019-05-02T09:50:37.937Z,46.27
2019-05-02T09:51:34.641Z,47.97
2019-05-02T09:52:39.530Z,48.20
2019-05-02T09:53:35.625Z,46.89
2019-05-02T09:54:37.013Z,46.72
2019-05-02T09:55:35.603Z,44.71
2019-05-02T09:56:34.586Z,45.09
2019-05-02T09:57:34.576Z,46.09
2019-05-02T09:58:34.566Z,48.18
2019-05-02T09:59:34.629Z,50.99
2019-05-02T10:00:36.205Z,49.78
2019-05-02T10:01:35.838Z,47.70
2019-05-02T10:02:34.523Z,48.20
2019-05-02T10:03:34.518Z,51.31
2019-05-02T10:04:34.517Z,51.61
2019-05-02T10:05:34.494Z,52.94
2019-05-02T10:06:34.491Z,51.61
2019-05-02T10:07:34.473Z,51.72
2019-05-02T10:08:38.307Z,52.69
2019-05-02T10:09:35.456Z,52.57
2019-05-02T10:10:37.037Z,51.04
2019-05-02T10:11:35.441Z,49.41
2019-05-02T10:12:34.442Z,49.49
2019-05-02T10:13:34.421Z,48.26
2019-05-02T10:14:34.418Z,45.84
2019-05-02T10:15:34.460Z,45.42
2019-05-02T10:16:34.377Z,44.71
2019-05-02T10:17:37.478Z,46.54
2019-05-02T10:18:35.368Z,42.74
2019-05-02T10:19:34.347Z,44.24
2019-05-02T10:20:36.391Z,44.46
2019-05-02T10:21:34.326Z,44.18
2019-05-02T10:22:39.312Z,42.99
2019-05-02T10:23:35.302Z,44.60
2019-05-02T10:24:34.298Z,46.12
2019-05-02T10:25:38.692Z,48.86
2019-05-02T10:26:34.269Z,47.97
2019-05-02T10:27:38.493Z,49.18
2019-05-02T10:28:35.253Z,48.08
2019-05-02T10:29:34.244Z,48.50
2019-05-02T10:30:36.057Z,46.69
2019-05-02T10:31:37.564Z,45.99
2019-05-02T10:32:34.211Z,45.29
2019-05-02T10:33:37.622Z,41.49
2019-05-02T10:34:34.189Z,41.99
2019-05-02T10:35:40.400Z,38.29
2019-05-02T10:36:35.284Z,39.50
2019-05-02T10:37:38.240Z,40.92
2019-05-02T10:38:35.158Z,40.42
2019-05-02T10:39:37.811Z,40.92
2019-05-02T10:40:34.135Z,44.37
2019-05-02T10:41:39.445Z,41.15
2019-05-02T10:42:35.102Z,38.83
2019-05-02T10:43:34.088Z,40.16
2019-05-02T10:44:36.453Z,42.33
2019-05-02T10:45:34.072Z,40.53
2019-05-02T10:46:37.653Z,38.92
2019-05-02T10:47:36.332Z,39.92
2019-05-02T10:48:34.035Z,39.92
2019-05-02T10:49:34.036Z,39.60
2019-05-02T10:50:34.012Z,42.21
2019-05-02T10:51:34.005Z,40.89
2019-05-02T10:52:34.395Z,41.01
2019-05-02T10:53:33.990Z,39.40
2019-05-02T10:54:37.567Z,38.60
2019-05-02T10:55:33.957Z,38.49
2019-05-02T10:56:33.953Z,37.87
2019-05-02T10:57:33.943Z,37.85
2019-05-02T10:58:35.728Z,35.33
2019-05-02T10:59:33.937Z,37.12
2019-05-02T11:00:33.906Z,39.11
2019-05-02T11:01:33.892Z,34.98
2019-05-02T11:02:33.883Z,37.38
2019-05-02T11:03:38.111Z,35.86
2019-05-02T11:04:34.864Z,37.57
2019-05-02T11:05:37.072Z,34.86
2019-05-02T11:06:37.106Z,34.76
2019-05-02T11:07:34.866Z,36.66
2019-05-02T11:08:36.811Z,35.55
2019-05-02T11:09:34.813Z,36.65
2019-05-02T11:10:33.810Z,36.75
2019-05-02T11:11:33.788Z,36.55
2019-05-02T11:12:41.866Z,36.65
2019-05-02T11:13:34.767Z,36.94
2019-05-02T11:14:33.765Z,39.33
2019-05-02T11:15:33.770Z,37.53
2019-05-02T11:16:33.763Z,38.33
2019-05-02T11:17:36.188Z,35.91
2019-05-02T11:18:42.308Z,34.01
2019-05-02T11:19:34.709Z,36.91
2019-05-02T11:20:33.732Z,38.20
2019-05-02T11:21:33.681Z,34.89
2019-05-02T11:22:33.693Z,36.68
2019-05-02T11:23:33.703Z,33.26
2019-05-02T11:24:33.654Z,34.78
2019-05-02T11:25:33.646Z,35.46
2019-05-02T11:26:33.641Z,34.86
2019-05-02T11:27:33.633Z,33.96
2019-05-02T11:28:33.658Z,36.38
2019-05-02T11:29:33.597Z,33.08
2019-05-02T11:30:33.588Z,36.88
2019-05-02T11:31:33.584Z,40.59
2019-05-02T11:32:33.570Z,37.51
2019-05-02T11:33:33.638Z,35.51
2019-05-02T11:34:33.573Z,35.23
2019-05-02T11:35:33.533Z,34.55
2019-05-02T11:36:33.527Z,34.94
2019-05-02T11:37:33.518Z,35.96
2019-05-02T11:38:33.838Z,35.76
2019-05-02T11:39:44.138Z,35.56
2019-05-02T11:40:34.480Z,36.18
2019-05-02T11:41:33.530Z,37.40
2019-05-02T11:42:33.463Z,38.20
2019-05-02T11:43:37.254Z,40.11
2019-05-02T11:44:34.451Z,39.91
2019-05-02T11:45:33.445Z,38.09
2019-05-02T11:46:37.597Z,35.48
2019-05-02T11:47:34.430Z,37.88
2019-05-02T11:48:33.399Z,33.76
2019-05-02T11:49:33.402Z,35.58
2019-05-02T11:50:35.478Z,34.78
2019-05-02T11:51:33.381Z,35.48
2019-05-02T11:52:37.351Z,34.69
2019-05-02T11:53:33.346Z,35.60
2019-05-02T11:54:33.334Z,35.18
2019-05-02T11:55:33.327Z,34.99
2019-05-02T11:56:33.481Z,37.00
2019-05-02T11:57:33.363Z,36.10
2019-05-02T11:58:33.309Z,36.72
2019-05-02T11:59:33.278Z,37.02
2019-05-02T12:00:33.273Z,36.61
2019-05-02T12:01:37.189Z,39.53
2019-05-02T12:02:34.246Z,38.92
2019-05-02T12:03:36.879Z,37.24
2019-05-02T12:04:33.225Z,36.73
2019-05-02T12:05:35.679Z,35.35
2019-05-02T12:06:33.314Z,34.74
2019-05-02T12:07:33.205Z,35.75
2019-05-02T12:08:33.199Z,35.14
2019-05-02T12:09:33.169Z,35.35
2019-05-02T12:10:36.645Z,35.55
2019-05-02T12:11:33.171Z,35.05
2019-05-02T12:12:36.256Z,35.66
2019-05-02T12:13:33.142Z,37.07
2019-05-02T12:14:36.341Z,37.47
2019-05-02T12:15:33.106Z,39.78
2019-05-02T12:16:33.095Z,36.65
2019-05-02T12:17:33.104Z,35.44
2019-05-02T12:18:33.074Z,37.26
2019-05-02T12:19:33.061Z,35.14
2019-05-02T12:20:36.499Z,36.45
2019-05-02T12:21:33.045Z,40.06
2019-05-02T12:22:33.036Z,40.77
2019-05-02T12:23:36.050Z,36.77
2019-05-02T12:24:36.334Z,39.38
2019-05-02T12:25:33.991Z,39.48
2019-05-02T12:26:33.022Z,36.77
2019-05-02T12:27:33.018Z,37.27
2019-05-02T12:28:32.962Z,37.08
2019-05-02T12:29:33.477Z,40.00
2019-05-02T12:30:34.137Z,37.39
2019-05-02T12:31:32.963Z,37.51
2019-05-02T12:32:33.408Z,38.01
2019-05-02T12:33:32.906Z,38.21
2019-05-02T12:34:32.946Z,37.41
2019-05-02T12:35:32.894Z,37.30
2019-05-02T12:36:33.433Z,37.71
2019-05-02T12:37:32.876Z,38.71
2019-05-02T12:38:32.854Z,36.49
2019-05-02T12:39:32.846Z,37.49
2019-05-02T12:40:32.832Z,36.16
2019-05-02T12:41:33.245Z,37.55
2019-05-02T12:42:33.579Z,36.93
2019-05-02T12:43:32.819Z,35.51
2019-05-02T12:44:32.790Z,35.60
2019-05-02T12:45:33.693Z,36.50
2019-05-02T12:46:32.768Z,37.60
2019-05-02T12:47:32.781Z,34.98
2019-05-02T12:48:32.884Z,35.46
2019-05-02T12:49:32.760Z,35.56
2019-05-02T12:50:32.723Z,35.14
2019-05-02T12:51:32.721Z,35.64
2019-05-02T12:52:32.715Z,34.66